sensor_id;sensor_type;location;lat;lon;timestamp;P1;durP1;ratioP1;P2;durP2;ratioP2
35877;SDS011;21982;49.804;24.072;2023-06-14T00:01:51;14.95;;;8.25;;
35877;SDS011;21982;49.804;24.072;2023-06-14T00:04:16;14.77;;;8.05;;
35877;SDS011;21982;49.804;24.072;2023-06-14T00:06:42;15.55;;;8.38;;
35877;SDS011;21982;49.804;24.072;2023-06-14T00:09:10;13.35;;;7.93;;
35877;SDS011;21982;49.804;24.072;2023-06-14T00:11:38;14.18;;;7.82;;
35877;SDS011;21982;49.804;24.072;2023-06-14T00:14:04;13.95;;;9.25;;
35877;SDS011;21982;49.804;24.072;2023-06-14T00:16:29;14.68;;;7.68;;
35877;SDS011;21982;49.804;24.072;2023-06-14T00:18:55;12.98;;;8.38;;
35877;SDS011;21982;49.804;24.072;2023-06-14T00:21:21;14.63;;;7.75;;
35877;SDS011;21982;49.804;24.072;2023-06-14T00:23:46;19.27;;;8.40;;
35877;SDS011;21982;49.804;24.072;2023-06-14T00:26:12;14.30;;;9.25;;
35877;SDS011;21982;49.804;24.072;2023-06-14T00:28:37;16.52;;;8.65;;
35877;SDS011;21982;49.804;24.072;2023-06-14T00:31:04;12.88;;;7.25;;
35877;SDS011;21982;49.804;24.072;2023-06-14T00:33:29;14.25;;;8.27;;
35877;SDS011;21982;49.804;24.072;2023-06-14T00:35:55;16.65;;;8.50;;
35877;SDS011;21982;49.804;24.072;2023-06-14T00:38:26;13.80;;;7.00;;
35877;SDS011;21982;49.804;24.072;2023-06-14T00:40:52;14.55;;;8.82;;
35877;SDS011;21982;49.804;24.072;2023-06-14T00:43:18;17.15;;;8.32;;
35877;SDS011;21982;49.804;24.072;2023-06-14T00:45:44;15.70;;;9.50;;
35877;SDS011;21982;49.804;24.072;2023-06-14T00:48:10;24.85;;;14.63;;
35877;SDS011;21982;49.804;24.072;2023-06-14T00:55:46;22.17;;;12.70;;
35877;SDS011;21982;49.804;24.072;2023-06-14T01:00:48;20.63;;;13.85;;
35877;SDS011;21982;49.804;24.072;2023-06-14T01:03:14;25.88;;;15.07;;
35877;SDS011;21982;49.804;24.072;2023-06-14T01:05:46;23.15;;;14.70;;
35877;SDS011;21982;49.804;24.072;2023-06-14T01:08:36;24.40;;;16.08;;
35877;SDS011;21982;49.804;24.072;2023-06-14T01:11:25;22.45;;;13.20;;
35877;SDS011;21982;49.804;24.072;2023-06-14T01:16:34;26.20;;;16.13;;
35877;SDS011;21982;49.804;24.072;2023-06-14T01:19:01;31.95;;;21.27;;
35877;SDS011;21982;49.804;24.072;2023-06-14T01:21:30;31.55;;;20.05;;
35877;SDS011;21982;49.804;24.072;2023-06-14T01:23:55;32.50;;;22.10;;
35877;SDS011;21982;49.804;24.072;2023-06-14T01:26:22;34.95;;;24.05;;
35877;SDS011;21982;49.804;24.072;2023-06-14T01:28:48;33.75;;;23.77;;
35877;SDS011;21982;49.804;24.072;2023-06-14T01:31:18;31.50;;;21.58;;
35877;SDS011;21982;49.804;24.072;2023-06-14T01:33:46;30.88;;;20.25;;
35877;SDS011;21982;49.804;24.072;2023-06-14T01:36:14;28.30;;;18.25;;
35877;SDS011;21982;49.804;24.072;2023-06-14T01:38:42;28.80;;;17.80;;
35877;SDS011;21982;49.804;24.072;2023-06-14T01:41:13;27.35;;;16.35;;
35877;SDS011;21982;49.804;24.072;2023-06-14T01:43:41;19.80;;;13.02;;
35877;SDS011;21982;49.804;24.072;2023-06-14T01:46:08;16.33;;;11.05;;
35877;SDS011;21982;49.804;24.072;2023-06-14T01:48:34;21.20;;;12.23;;
35877;SDS011;21982;49.804;24.072;2023-06-14T01:51:00;18.48;;;12.55;;
35877;SDS011;21982;49.804;24.072;2023-06-14T01:53:26;23.45;;;13.07;;
35877;SDS011;21982;49.804;24.072;2023-06-14T01:55:51;19.30;;;11.15;;
35877;SDS011;21982;49.804;24.072;2023-06-14T01:58:19;20.83;;;14.00;;
35877;SDS011;21982;49.804;24.072;2023-06-14T02:00:48;21.00;;;13.20;;
35877;SDS011;21982;49.804;24.072;2023-06-14T02:03:18;21.98;;;13.77;;
35877;SDS011;21982;49.804;24.072;2023-06-14T02:05:44;18.45;;;10.60;;
35877;SDS011;21982;49.804;24.072;2023-06-14T02:08:09;17.58;;;9.60;;
35877;SDS011;21982;49.804;24.072;2023-06-14T02:13:10;14.38;;;9.55;;
35877;SDS011;21982;49.804;24.072;2023-06-14T02:15:35;16.48;;;9.02;;
35877;SDS011;21982;49.804;24.072;2023-06-14T02:18:02;15.45;;;9.77;;
35877;SDS011;21982;49.804;24.072;2023-06-14T02:20:28;18.80;;;11.60;;
35877;SDS011;21982;49.804;24.072;2023-06-14T02:22:54;21.60;;;12.68;;
35877;SDS011;21982;49.804;24.072;2023-06-14T02:25:20;19.30;;;11.95;;
35877;SDS011;21982;49.804;24.072;2023-06-14T02:27:48;20.85;;;12.05;;
35877;SDS011;21982;49.804;24.072;2023-06-14T02:30:14;24.65;;;14.35;;
35877;SDS011;21982;49.804;24.072;2023-06-14T02:32:40;24.65;;;16.50;;
35877;SDS011;21982;49.804;24.072;2023-06-14T02:35:07;23.95;;;15.85;;
35877;SDS011;21982;49.804;24.072;2023-06-14T02:37:33;26.15;;;16.92;;
35877;SDS011;21982;49.804;24.072;2023-06-14T02:40:02;28.85;;;17.83;;
35877;SDS011;21982;49.804;24.072;2023-06-14T02:42:28;39.60;;;24.02;;
35877;SDS011;21982;49.804;24.072;2023-06-14T02:44:55;30.33;;;21.05;;
35877;SDS011;21982;49.804;24.072;2023-06-14T02:47:34;22.85;;;15.23;;
35877;SDS011;21982;49.804;24.072;2023-06-14T02:50:00;21.48;;;12.20;;
35877;SDS011;21982;49.804;24.072;2023-06-14T02:52:27;19.42;;;11.43;;
35877;SDS011;21982;49.804;24.072;2023-06-14T02:54:53;16.60;;;10.90;;
35877;SDS011;21982;49.804;24.072;2023-06-14T02:57:19;18.92;;;9.18;;
35877;SDS011;21982;49.804;24.072;2023-06-14T02:59:45;14.50;;;8.95;;
35877;SDS011;21982;49.804;24.072;2023-06-14T03:02:10;14.70;;;9.48;;
35877;SDS011;21982;49.804;24.072;2023-06-14T03:04:35;16.98;;;8.18;;
35877;SDS011;21982;49.804;24.072;2023-06-14T03:07:02;15.85;;;9.05;;
35877;SDS011;21982;49.804;24.072;2023-06-14T03:09:34;15.18;;;7.50;;
35877;SDS011;21982;49.804;24.072;2023-06-14T03:12:03;15.85;;;8.82;;
35877;SDS011;21982;49.804;24.072;2023-06-14T03:14:30;13.02;;;8.65;;
35877;SDS011;21982;49.804;24.072;2023-06-14T03:16:56;15.27;;;8.52;;
35877;SDS011;21982;49.804;24.072;2023-06-14T03:19:22;13.57;;;8.50;;
35877;SDS011;21982;49.804;24.072;2023-06-14T03:21:48;13.55;;;8.07;;
35877;SDS011;21982;49.804;24.072;2023-06-14T03:26:49;18.27;;;9.70;;
35877;SDS011;21982;49.804;24.072;2023-06-14T03:29:15;15.75;;;10.27;;
35877;SDS011;21982;49.804;24.072;2023-06-14T03:31:55;17.85;;;9.43;;
35877;SDS011;21982;49.804;24.072;2023-06-14T03:34:24;15.13;;;8.50;;
35877;SDS011;21982;49.804;24.072;2023-06-14T03:36:49;15.32;;;9.60;;
35877;SDS011;21982;49.804;24.072;2023-06-14T03:39:15;12.95;;;8.35;;
35877;SDS011;21982;49.804;24.072;2023-06-14T03:41:40;16.05;;;8.63;;
35877;SDS011;21982;49.804;24.072;2023-06-14T03:44:06;14.43;;;8.27;;
35877;SDS011;21982;49.804;24.072;2023-06-14T03:46:31;13.70;;;8.20;;
35877;SDS011;21982;49.804;24.072;2023-06-14T03:48:58;19.88;;;10.98;;
35877;SDS011;21982;49.804;24.072;2023-06-14T03:51:23;17.60;;;11.15;;
35877;SDS011;21982;49.804;24.072;2023-06-14T03:53:50;19.77;;;11.30;;
35877;SDS011;21982;49.804;24.072;2023-06-14T03:56:15;17.85;;;10.63;;
35877;SDS011;21982;49.804;24.072;2023-06-14T03:58:41;18.38;;;11.80;;
35877;SDS011;21982;49.804;24.072;2023-06-14T04:01:06;15.32;;;9.98;;
35877;SDS011;21982;49.804;24.072;2023-06-14T04:03:33;16.77;;;9.90;;
35877;SDS011;21982;49.804;24.072;2023-06-14T04:05:59;15.63;;;9.85;;
35877;SDS011;21982;49.804;24.072;2023-06-14T04:11:00;15.73;;;8.13;;
35877;SDS011;21982;49.804;24.072;2023-06-14T04:13:27;15.55;;;9.13;;
35877;SDS011;21982;49.804;24.072;2023-06-14T04:15:54;12.00;;;8.20;;
35877;SDS011;21982;49.804;24.072;2023-06-14T04:18:21;14.07;;;8.10;;
35877;SDS011;21982;49.804;24.072;2023-06-14T04:20:47;15.20;;;8.10;;
35877;SDS011;21982;49.804;24.072;2023-06-14T04:23:15;12.02;;;8.00;;
35877;SDS011;21982;49.804;24.072;2023-06-14T04:25:43;13.18;;;7.70;;
35877;SDS011;21982;49.804;24.072;2023-06-14T04:30:47;13.77;;;7.78;;
35877;SDS011;21982;49.804;24.072;2023-06-14T04:33:12;13.13;;;7.25;;
35877;SDS011;21982;49.804;24.072;2023-06-14T04:35:39;10.48;;;7.35;;
35877;SDS011;21982;49.804;24.072;2023-06-14T04:38:05;17.80;;;8.57;;
35877;SDS011;21982;49.804;24.072;2023-06-14T04:40:38;11.07;;;7.28;;
35877;SDS011;21982;49.804;24.072;2023-06-14T04:45:34;11.45;;;7.97;;
35877;SDS011;21982;49.804;24.072;2023-06-14T04:48:02;11.65;;;8.00;;
35877;SDS011;21982;49.804;24.072;2023-06-14T04:50:27;14.57;;;9.85;;
35877;SDS011;21982;49.804;24.072;2023-06-14T04:52:57;12.23;;;8.40;;
35877;SDS011;21982;49.804;24.072;2023-06-14T04:55:27;15.10;;;8.32;;
35877;SDS011;21982;49.804;24.072;2023-06-14T04:57:55;15.52;;;8.88;;
35877;SDS011;21982;49.804;24.072;2023-06-14T05:00:21;14.90;;;8.77;;
35877;SDS011;21982;49.804;24.072;2023-06-14T05:02:49;13.25;;;8.45;;
35877;SDS011;21982;49.804;24.072;2023-06-14T05:05:17;11.13;;;7.20;;
35877;SDS011;21982;49.804;24.072;2023-06-14T05:07:42;13.88;;;8.38;;
35877;SDS011;21982;49.804;24.072;2023-06-14T05:10:08;11.90;;;7.40;;
35877;SDS011;21982;49.804;24.072;2023-06-14T05:12:34;13.65;;;7.55;;
35877;SDS011;21982;49.804;24.072;2023-06-14T05:15:01;11.95;;;7.25;;
35877;SDS011;21982;49.804;24.072;2023-06-14T05:17:26;13.18;;;7.07;;
35877;SDS011;21982;49.804;24.072;2023-06-14T05:19:53;15.95;;;8.07;;
35877;SDS011;21982;49.804;24.072;2023-06-14T05:22:18;12.63;;;6.80;;
35877;SDS011;21982;49.804;24.072;2023-06-14T05:24:44;15.65;;;7.53;;
35877;SDS011;21982;49.804;24.072;2023-06-14T05:27:12;18.90;;;8.55;;
35877;SDS011;21982;49.804;24.072;2023-06-14T05:29:41;10.70;;;7.38;;
35877;SDS011;21982;49.804;24.072;2023-06-14T05:32:07;12.40;;;7.00;;
35877;SDS011;21982;49.804;24.072;2023-06-14T05:34:33;12.18;;;6.80;;
35877;SDS011;21982;49.804;24.072;2023-06-14T05:36:58;13.52;;;7.00;;
35877;SDS011;21982;49.804;24.072;2023-06-14T05:39:23;14.43;;;6.43;;
35877;SDS011;21982;49.804;24.072;2023-06-14T05:41:49;10.75;;;6.32;;
35877;SDS011;21982;49.804;24.072;2023-06-14T05:44:14;10.10;;;6.60;;
35877;SDS011;21982;49.804;24.072;2023-06-14T05:46:40;8.30;;;5.07;;
35877;SDS011;21982;49.804;24.072;2023-06-14T05:49:08;10.75;;;5.70;;
35877;SDS011;21982;49.804;24.072;2023-06-14T05:51:34;12.90;;;6.18;;
35877;SDS011;21982;49.804;24.072;2023-06-14T05:54:01;10.85;;;6.55;;
35877;SDS011;21982;49.804;24.072;2023-06-14T05:56:26;10.75;;;5.85;;
35877;SDS011;21982;49.804;24.072;2023-06-14T05:58:52;11.65;;;6.45;;
35877;SDS011;21982;49.804;24.072;2023-06-14T06:01:17;10.75;;;6.78;;
35877;SDS011;21982;49.804;24.072;2023-06-14T06:03:43;10.15;;;5.53;;
35877;SDS011;21982;49.804;24.072;2023-06-14T06:06:12;12.80;;;6.07;;
35877;SDS011;21982;49.804;24.072;2023-06-14T06:08:38;12.15;;;5.68;;
35877;SDS011;21982;49.804;24.072;2023-06-14T06:11:04;13.85;;;5.78;;
35877;SDS011;21982;49.804;24.072;2023-06-14T06:13:32;11.63;;;7.00;;
35877;SDS011;21982;49.804;24.072;2023-06-14T06:15:58;10.52;;;6.20;;
35877;SDS011;21982;49.804;24.072;2023-06-14T06:18:24;9.35;;;6.55;;
35877;SDS011;21982;49.804;24.072;2023-06-14T06:20:49;11.80;;;6.75;;
35877;SDS011;21982;49.804;24.072;2023-06-14T06:23:15;12.15;;;7.10;;
35877;SDS011;21982;49.804;24.072;2023-06-14T06:25:40;12.45;;;7.05;;
35877;SDS011;21982;49.804;24.072;2023-06-14T06:28:08;13.77;;;6.32;;
35877;SDS011;21982;49.804;24.072;2023-06-14T06:30:34;10.13;;;6.20;;
35877;SDS011;21982;49.804;24.072;2023-06-14T06:33:01;9.18;;;5.65;;
35877;SDS011;21982;49.804;24.072;2023-06-14T06:35:26;12.63;;;6.40;;
35877;SDS011;21982;49.804;24.072;2023-06-14T06:37:52;12.90;;;7.20;;
35877;SDS011;21982;49.804;24.072;2023-06-14T06:40:17;12.55;;;5.72;;
35877;SDS011;21982;49.804;24.072;2023-06-14T06:42:43;10.80;;;5.18;;
35877;SDS011;21982;49.804;24.072;2023-06-14T06:45:08;9.88;;;6.35;;
35877;SDS011;21982;49.804;24.072;2023-06-14T06:47:34;13.27;;;5.72;;
35877;SDS011;21982;49.804;24.072;2023-06-14T06:50:00;11.95;;;5.93;;
35877;SDS011;21982;49.804;24.072;2023-06-14T06:52:25;12.95;;;6.05;;
35877;SDS011;21982;49.804;24.072;2023-06-14T06:54:51;12.82;;;5.50;;
35877;SDS011;21982;49.804;24.072;2023-06-14T06:57:19;9.30;;;5.80;;
35877;SDS011;21982;49.804;24.072;2023-06-14T06:59:46;11.30;;;5.40;;
35877;SDS011;21982;49.804;24.072;2023-06-14T07:02:11;9.70;;;4.97;;
35877;SDS011;21982;49.804;24.072;2023-06-14T07:04:36;10.25;;;4.47;;
35877;SDS011;21982;49.804;24.072;2023-06-14T07:07:02;8.43;;;5.82;;
35877;SDS011;21982;49.804;24.072;2023-06-14T07:09:27;10.32;;;4.70;;
35877;SDS011;21982;49.804;24.072;2023-06-14T07:11:53;9.77;;;4.88;;
35877;SDS011;21982;49.804;24.072;2023-06-14T07:14:18;8.65;;;5.20;;
35877;SDS011;21982;49.804;24.072;2023-06-14T07:16:48;13.85;;;5.32;;
35877;SDS011;21982;49.804;24.072;2023-06-14T07:19:14;12.65;;;6.43;;
35877;SDS011;21982;49.804;24.072;2023-06-14T07:21:39;11.30;;;6.55;;
35877;SDS011;21982;49.804;24.072;2023-06-14T07:24:05;9.70;;;5.30;;
35877;SDS011;21982;49.804;24.072;2023-06-14T07:26:32;12.93;;;6.45;;
35877;SDS011;21982;49.804;24.072;2023-06-14T07:28:58;14.93;;;6.35;;
35877;SDS011;21982;49.804;24.072;2023-06-14T07:31:23;10.57;;;6.43;;
35877;SDS011;21982;49.804;24.072;2023-06-14T07:33:50;9.57;;;5.40;;
35877;SDS011;21982;49.804;24.072;2023-06-14T07:36:15;8.48;;;5.57;;
35877;SDS011;21982;49.804;24.072;2023-06-14T07:38:40;11.60;;;5.05;;
35877;SDS011;21982;49.804;24.072;2023-06-14T07:43:41;11.82;;;6.88;;
35877;SDS011;21982;49.804;24.072;2023-06-14T07:46:06;12.95;;;6.20;;
35877;SDS011;21982;49.804;24.072;2023-06-14T07:48:33;10.88;;;5.40;;
35877;SDS011;21982;49.804;24.072;2023-06-14T07:50:58;11.93;;;5.88;;
35877;SDS011;21982;49.804;24.072;2023-06-14T07:53:26;11.88;;;7.03;;
35877;SDS011;21982;49.804;24.072;2023-06-14T07:55:51;10.00;;;5.10;;
35877;SDS011;21982;49.804;24.072;2023-06-14T07:58:16;12.13;;;6.57;;
35877;SDS011;21982;49.804;24.072;2023-06-14T08:00:43;14.00;;;5.40;;
35877;SDS011;21982;49.804;24.072;2023-06-14T08:03:08;11.48;;;5.78;;
35877;SDS011;21982;49.804;24.072;2023-06-14T08:08:10;10.45;;;5.60;;
35877;SDS011;21982;49.804;24.072;2023-06-14T08:10:35;12.02;;;5.40;;
35877;SDS011;21982;49.804;24.072;2023-06-14T08:13:01;12.15;;;6.55;;
35877;SDS011;21982;49.804;24.072;2023-06-14T08:15:26;15.15;;;7.95;;
35877;SDS011;21982;49.804;24.072;2023-06-14T08:17:52;13.18;;;6.22;;
35877;SDS011;21982;49.804;24.072;2023-06-14T08:25:27;10.43;;;5.22;;
35877;SDS011;21982;49.804;24.072;2023-06-14T08:30:28;11.75;;;6.03;;
35877;SDS011;21982;49.804;24.072;2023-06-14T08:32:53;10.18;;;5.35;;
35877;SDS011;21982;49.804;24.072;2023-06-14T08:35:47;13.13;;;5.65;;
35877;SDS011;21982;49.804;24.072;2023-06-14T08:38:13;10.95;;;5.72;;
35877;SDS011;21982;49.804;24.072;2023-06-14T08:40:38;9.82;;;4.75;;
35877;SDS011;21982;49.804;24.072;2023-06-14T08:43:05;12.18;;;5.72;;
35877;SDS011;21982;49.804;24.072;2023-06-14T08:48:06;11.00;;;4.78;;
35877;SDS011;21982;49.804;24.072;2023-06-14T08:50:32;8.43;;;4.32;;
35877;SDS011;21982;49.804;24.072;2023-06-14T08:53:02;7.22;;;4.28;;
35877;SDS011;21982;49.804;24.072;2023-06-14T08:55:29;12.55;;;4.03;;
35877;SDS011;21982;49.804;24.072;2023-06-14T08:57:56;10.25;;;4.45;;
35877;SDS011;21982;49.804;24.072;2023-06-14T09:00:24;8.23;;;4.70;;
35877;SDS011;21982;49.804;24.072;2023-06-14T09:02:51;11.55;;;5.80;;
35877;SDS011;21982;49.804;24.072;2023-06-14T09:05:22;10.77;;;7.97;;
35877;SDS011;21982;49.804;24.072;2023-06-14T09:07:51;9.65;;;5.78;;
35877;SDS011;21982;49.804;24.072;2023-06-14T09:23:20;8.20;;;3.67;;
35877;SDS011;21982;49.804;24.072;2023-06-14T09:25:47;7.82;;;4.25;;
35877;SDS011;21982;49.804;24.072;2023-06-14T09:28:12;8.40;;;4.00;;
35877;SDS011;21982;49.804;24.072;2023-06-14T09:30:38;11.93;;;4.28;;
35877;SDS011;21982;49.804;24.072;2023-06-14T09:33:04;6.82;;;4.22;;
35877;SDS011;21982;49.804;24.072;2023-06-14T09:35:31;8.73;;;4.13;;
35877;SDS011;21982;49.804;24.072;2023-06-14T09:37:58;9.52;;;3.80;;
35877;SDS011;21982;49.804;24.072;2023-06-14T09:40:23;7.90;;;3.53;;
35877;SDS011;21982;49.804;24.072;2023-06-14T10:13:51;9.23;;;4.35;;
35877;SDS011;21982;49.804;24.072;2023-06-14T10:16:56;8.70;;;4.50;;
35877;SDS011;21982;49.804;24.072;2023-06-14T10:19:29;8.80;;;4.35;;
35877;SDS011;21982;49.804;24.072;2023-06-14T10:22:06;12.15;;;5.70;;
35877;SDS011;21982;49.804;24.072;2023-06-14T10:34:58;9.00;;;4.68;;
35877;SDS011;21982;49.804;24.072;2023-06-14T10:37:24;7.55;;;4.60;;
35877;SDS011;21982;49.804;24.072;2023-06-14T10:39:49;7.30;;;4.32;;
35877;SDS011;21982;49.804;24.072;2023-06-14T10:42:15;8.25;;;4.43;;
35877;SDS011;21982;49.804;24.072;2023-06-14T10:47:35;7.45;;;4.20;;
35877;SDS011;21982;49.804;24.072;2023-06-14T10:52:27;8.38;;;4.63;;
35877;SDS011;21982;49.804;24.072;2023-06-14T10:55:01;8.57;;;5.03;;
35877;SDS011;21982;49.804;24.072;2023-06-14T10:57:34;10.70;;;4.57;;
35877;SDS011;21982;49.804;24.072;2023-06-14T11:00:12;8.25;;;3.95;;
35877;SDS011;21982;49.804;24.072;2023-06-14T11:05:52;8.10;;;4.18;;
35877;SDS011;21982;49.804;24.072;2023-06-14T11:10:58;7.30;;;3.80;;
35877;SDS011;21982;49.804;24.072;2023-06-14T11:13:25;10.45;;;4.88;;
35877;SDS011;21982;49.804;24.072;2023-06-14T11:15:51;12.25;;;5.30;;
35877;SDS011;21982;49.804;24.072;2023-06-14T11:18:21;9.52;;;3.60;;
35877;SDS011;21982;49.804;24.072;2023-06-14T11:20:56;7.35;;;3.17;;
35877;SDS011;21982;49.804;24.072;2023-06-14T11:23:22;6.10;;;3.85;;
35877;SDS011;21982;49.804;24.072;2023-06-14T11:33:36;8.25;;;4.20;;
35877;SDS011;21982;49.804;24.072;2023-06-14T11:36:03;12.02;;;7.25;;
35877;SDS011;21982;49.804;24.072;2023-06-14T11:38:36;9.75;;;4.88;;
35877;SDS011;21982;49.804;24.072;2023-06-14T11:41:02;9.20;;;4.05;;
35877;SDS011;21982;49.804;24.072;2023-06-14T11:43:27;6.10;;;3.47;;
35877;SDS011;21982;49.804;24.072;2023-06-14T11:45:54;7.85;;;3.72;;
35877;SDS011;21982;49.804;24.072;2023-06-14T11:48:19;6.22;;;3.25;;
35877;SDS011;21982;49.804;24.072;2023-06-14T11:50:49;6.20;;;3.53;;
35877;SDS011;21982;49.804;24.072;2023-06-14T11:53:15;9.57;;;3.35;;
35877;SDS011;21982;49.804;24.072;2023-06-14T11:55:42;6.72;;;3.70;;
35877;SDS011;21982;49.804;24.072;2023-06-14T11:58:10;6.35;;;3.50;;
35877;SDS011;21982;49.804;24.072;2023-06-14T12:00:36;6.43;;;3.20;;
35877;SDS011;21982;49.804;24.072;2023-06-14T12:03:06;7.78;;;3.83;;
35877;SDS011;21982;49.804;24.072;2023-06-14T12:05:32;11.90;;;3.53;;
35877;SDS011;21982;49.804;24.072;2023-06-14T12:07:59;9.07;;;2.60;;
35877;SDS011;21982;49.804;24.072;2023-06-14T12:10:27;5.68;;;3.05;;
35877;SDS011;21982;49.804;24.072;2023-06-14T12:12:56;6.20;;;3.42;;
35877;SDS011;21982;49.804;24.072;2023-06-14T12:15:23;8.40;;;4.38;;
35877;SDS011;21982;49.804;24.072;2023-06-14T12:17:49;6.55;;;3.38;;
35877;SDS011;21982;49.804;24.072;2023-06-14T12:20:15;8.05;;;3.85;;
35877;SDS011;21982;49.804;24.072;2023-06-14T12:22:47;7.10;;;3.63;;
35877;SDS011;21982;49.804;24.072;2023-06-14T12:25:27;6.57;;;3.30;;
35877;SDS011;21982;49.804;24.072;2023-06-14T12:27:59;8.63;;;4.43;;
35877;SDS011;21982;49.804;24.072;2023-06-14T12:30:40;5.18;;;3.17;;
35877;SDS011;21982;49.804;24.072;2023-06-14T12:33:07;6.85;;;4.07;;
35877;SDS011;21982;49.804;24.072;2023-06-14T12:35:33;5.32;;;3.17;;
35877;SDS011;21982;49.804;24.072;2023-06-14T12:38:00;7.93;;;3.70;;
35877;SDS011;21982;49.804;24.072;2023-06-14T12:40:26;10.70;;;4.35;;
35877;SDS011;21982;49.804;24.072;2023-06-14T12:42:51;9.18;;;3.42;;
35877;SDS011;21982;49.804;24.072;2023-06-14T12:45:19;7.22;;;4.03;;
35877;SDS011;21982;49.804;24.072;2023-06-14T12:47:46;8.95;;;3.70;;
35877;SDS011;21982;49.804;24.072;2023-06-14T12:50:13;10.85;;;4.40;;
35877;SDS011;21982;49.804;24.072;2023-06-14T12:52:38;8.18;;;3.88;;
35877;SDS011;21982;49.804;24.072;2023-06-14T12:55:04;6.88;;;3.50;;
35877;SDS011;21982;49.804;24.072;2023-06-14T13:00:05;7.85;;;3.90;;
35877;SDS011;21982;49.804;24.072;2023-06-14T13:02:32;7.70;;;4.00;;
35877;SDS011;21982;49.804;24.072;2023-06-14T13:05:01;12.25;;;5.25;;
35877;SDS011;21982;49.804;24.072;2023-06-14T13:07:28;7.90;;;4.22;;
35877;SDS011;21982;49.804;24.072;2023-06-14T13:09:57;6.10;;;3.40;;
35877;SDS011;21982;49.804;24.072;2023-06-14T13:12:23;6.50;;;3.92;;
35877;SDS011;21982;49.804;24.072;2023-06-14T13:14:49;8.82;;;4.25;;
35877;SDS011;21982;49.804;24.072;2023-06-14T13:17:16;6.13;;;3.30;;
35877;SDS011;21982;49.804;24.072;2023-06-14T13:19:42;6.10;;;3.45;;
35877;SDS011;21982;49.804;24.072;2023-06-14T13:22:07;7.90;;;3.92;;
35877;SDS011;21982;49.804;24.072;2023-06-14T13:24:34;9.00;;;3.92;;
35877;SDS011;21982;49.804;24.072;2023-06-14T13:27:00;6.82;;;4.13;;
35877;SDS011;21982;49.804;24.072;2023-06-14T13:29:27;8.80;;;4.20;;
35877;SDS011;21982;49.804;24.072;2023-06-14T13:31:53;7.43;;;4.03;;
35877;SDS011;21982;49.804;24.072;2023-06-14T13:34:19;7.93;;;4.10;;
35877;SDS011;21982;49.804;24.072;2023-06-14T13:36:45;7.55;;;4.68;;
35877;SDS011;21982;49.804;24.072;2023-06-14T13:39:12;10.95;;;5.78;;
35877;SDS011;21982;49.804;24.072;2023-06-14T13:41:37;6.97;;;4.82;;
35877;SDS011;21982;49.804;24.072;2023-06-14T13:44:02;9.23;;;4.55;;
35877;SDS011;21982;49.804;24.072;2023-06-14T13:46:31;10.13;;;5.10;;
35877;SDS011;21982;49.804;24.072;2023-06-14T13:48:57;6.78;;;4.05;;
35877;SDS011;21982;49.804;24.072;2023-06-14T13:51:26;8.45;;;4.70;;
35877;SDS011;21982;49.804;24.072;2023-06-14T14:04:39;8.98;;;4.65;;
35877;SDS011;21982;49.804;24.072;2023-06-14T14:28:17;8.00;;;5.75;;
35877;SDS011;21982;49.804;24.072;2023-06-14T14:30:46;7.97;;;4.90;;
35877;SDS011;21982;49.804;24.072;2023-06-14T14:33:14;8.13;;;4.40;;
35877;SDS011;21982;49.804;24.072;2023-06-14T14:35:42;9.00;;;4.45;;
35877;SDS011;21982;49.804;24.072;2023-06-14T14:38:10;7.70;;;4.28;;
35877;SDS011;21982;49.804;24.072;2023-06-14T14:40:36;6.10;;;4.00;;
35877;SDS011;21982;49.804;24.072;2023-06-14T14:43:02;7.78;;;3.75;;
35877;SDS011;21982;49.804;24.072;2023-06-14T14:45:27;8.07;;;4.40;;
35877;SDS011;21982;49.804;24.072;2023-06-14T14:47:54;6.07;;;3.50;;
35877;SDS011;21982;49.804;24.072;2023-06-14T14:50:19;7.68;;;4.53;;
35877;SDS011;21982;49.804;24.072;2023-06-14T14:52:45;8.38;;;4.68;;
35877;SDS011;21982;49.804;24.072;2023-06-14T14:55:10;8.13;;;4.38;;
35877;SDS011;21982;49.804;24.072;2023-06-14T14:57:36;8.20;;;4.72;;
35877;SDS011;21982;49.804;24.072;2023-06-14T15:00:02;8.05;;;4.07;;
35877;SDS011;21982;49.804;24.072;2023-06-14T15:02:28;8.95;;;4.60;;
35877;SDS011;21982;49.804;24.072;2023-06-14T15:04:55;9.98;;;4.85;;
35877;SDS011;21982;49.804;24.072;2023-06-14T15:07:25;8.73;;;5.35;;
35877;SDS011;21982;49.804;24.072;2023-06-14T15:09:52;9.85;;;4.93;;
35877;SDS011;21982;49.804;24.072;2023-06-14T15:12:17;9.02;;;5.47;;
35877;SDS011;21982;49.804;24.072;2023-06-14T15:14:47;11.85;;;6.10;;
35877;SDS011;21982;49.804;24.072;2023-06-14T15:17:14;8.32;;;5.03;;
35877;SDS011;21982;49.804;24.072;2023-06-14T15:19:40;8.70;;;4.88;;
35877;SDS011;21982;49.804;24.072;2023-06-14T15:22:05;9.15;;;5.82;;
35877;SDS011;21982;49.804;24.072;2023-06-14T15:24:31;10.02;;;5.68;;
35877;SDS011;21982;49.804;24.072;2023-06-14T15:26:57;7.75;;;5.22;;
35877;SDS011;21982;49.804;24.072;2023-06-14T15:29:23;12.43;;;5.38;;
35877;SDS011;21982;49.804;24.072;2023-06-14T15:31:50;11.73;;;7.57;;
35877;SDS011;21982;49.804;24.072;2023-06-14T15:34:15;8.90;;;5.00;;
35877;SDS011;21982;49.804;24.072;2023-06-14T15:36:42;8.82;;;4.78;;
35877;SDS011;21982;49.804;24.072;2023-06-14T15:39:07;8.38;;;4.68;;
35877;SDS011;21982;49.804;24.072;2023-06-14T15:41:33;8.20;;;5.05;;
35877;SDS011;21982;49.804;24.072;2023-06-14T15:43:59;10.20;;;4.50;;
35877;SDS011;21982;49.804;24.072;2023-06-14T15:46:24;9.93;;;5.55;;
35877;SDS011;21982;49.804;24.072;2023-06-14T15:48:50;8.45;;;4.50;;
35877;SDS011;21982;49.804;24.072;2023-06-14T15:51:17;6.65;;;3.95;;
35877;SDS011;21982;49.804;24.072;2023-06-14T15:53:44;9.57;;;4.75;;
35877;SDS011;21982;49.804;24.072;2023-06-14T15:56:10;7.10;;;3.88;;
35877;SDS011;21982;49.804;24.072;2023-06-14T15:58:36;7.97;;;3.50;;
35877;SDS011;21982;49.804;24.072;2023-06-14T16:01:01;7.00;;;3.67;;
35877;SDS011;21982;49.804;24.072;2023-06-14T16:03:26;6.63;;;3.42;;
35877;SDS011;21982;49.804;24.072;2023-06-14T16:08:27;6.50;;;4.03;;
35877;SDS011;21982;49.804;24.072;2023-06-14T16:10:54;5.40;;;3.40;;
35877;SDS011;21982;49.804;24.072;2023-06-14T16:13:19;6.85;;;3.13;;
35877;SDS011;21982;49.804;24.072;2023-06-14T16:15:48;7.03;;;3.35;;
35877;SDS011;21982;49.804;24.072;2023-06-14T16:23:26;7.03;;;3.95;;
35877;SDS011;21982;49.804;24.072;2023-06-14T16:25:52;7.40;;;3.95;;
35877;SDS011;21982;49.804;24.072;2023-06-14T16:28:17;7.57;;;4.00;;
35877;SDS011;21982;49.804;24.072;2023-06-14T16:30:42;7.40;;;3.70;;
35877;SDS011;21982;49.804;24.072;2023-06-14T16:33:08;6.07;;;3.63;;
35877;SDS011;21982;49.804;24.072;2023-06-14T16:35:33;7.10;;;3.70;;
35877;SDS011;21982;49.804;24.072;2023-06-14T16:37:58;6.80;;;3.90;;
35877;SDS011;21982;49.804;24.072;2023-06-14T16:40:25;8.73;;;4.13;;
35877;SDS011;21982;49.804;24.072;2023-06-14T16:42:50;8.05;;;3.95;;
35877;SDS011;21982;49.804;24.072;2023-06-14T16:45:16;7.13;;;4.25;;
35877;SDS011;21982;49.804;24.072;2023-06-14T16:47:42;7.15;;;3.75;;
35877;SDS011;21982;49.804;24.072;2023-06-14T16:50:08;9.07;;;4.03;;
35877;SDS011;21982;49.804;24.072;2023-06-14T16:52:34;13.07;;;5.00;;
35877;SDS011;21982;49.804;24.072;2023-06-14T16:54:59;7.82;;;4.30;;
35877;SDS011;21982;49.804;24.072;2023-06-14T16:57:25;7.93;;;4.25;;
35877;SDS011;21982;49.804;24.072;2023-06-14T16:59:52;7.78;;;4.43;;